Observations for MINNEAPOLIS-ST PAUL, MN (MSP)

KMSP 230953Z 34006KT 10SM CLR 02/M02 A3031 RMK AO2 SLP267 T00171017 
KMSP 230853Z 33009KT 10SM CLR 03/M02 A3030 RMK AO2 SLP265 T00281022 51010   
KMSP 230753Z 32008KT 10SM CLR 03/M02 A3029 RMK AO2 SLP262 T00331022 
KMSP 230653Z 32007KT 10SM CLR 03/M02 A3028 RMK AO2 SLP258 T00331022 
KMSP 230553Z 33008KT 10SM CLR 05/M02 A3027 RMK AO2 SLP253 T00501022 10117 20050 401610006 51020 
KMSP 230453Z 33007KT 10SM CLR 05/M02 A3026 RMK AO2 SLP251 T00501022 
KMSP 230353Z 33006KT 10SM CLR 06/M02 A3024 RMK AO2 SLP244 T00611022 
KMSP 230253Z 35009KT 10SM CLR 08/M03 A3021 RMK AO2 SLP235 T00781028 53032   
KMSP 230153Z 33012KT 10SM CLR 09/M03 A3018 RMK AO2 SLP224 T00941033 
KMSP 230053Z 33010KT 10SM CLR 11/M04 A3014 RMK AO2 SLP213 T01061044 
KMSP 222353Z 31013KT 10SM CLR 11/M04 A3011 RMK AO2 SLP202 T01111039 10161 20111 53020   
KMSP 222253Z 31014G23KT 10SM CLR 13/M04 A3008 RMK AO2 PK WND 31028/2235 SLP191 T01331039
KMSP 222153Z 29013KT 10SM CLR 15/M03 A3006 RMK AO2 SLP185 T01501028 
KMSP 222053Z 28015G22KT 10SM CLR 16/M02 A3005 RMK AO2 SLP181 T01611017 58002
KMSP 221953Z 32014G29KT 10SM CLR 16/M02 A3006 RMK AO2 PK WND 33029/1944 SLP182 T01561022
KMSP 221853Z 32016G27KT 10SM CLR 16/M02 A3006 RMK AO2 PK WND 31030/1833 SLP181 T01611017
KMSP 221753Z 30016G25KT 10SM CLR 16/M01 A3006 RMK AO2 SLP183 T01561011 10156 20017 50003
KMSP 221653Z 28013KT 10SM CLR 14/00 A3006 RMK AO2 SLP184 T01390000  
KMSP 221553Z 28009KT 10SM CLR 11/01 A3006 RMK AO2 SLP185 T01110011  
KMSP 221453Z 27010KT 10SM CLR 08/01 A3005 RMK AO2 SLP181 T00780006 53003
KMSP 221353Z 24007KT 10SM CLR 05/00 A3004 RMK AO2 SLP176 T00500000  
KMSP 221253Z 21003KT 10SM CLR 02/M01 A3003 RMK AO2 SLP176 T00221006 
KMSP 221153Z 20003KT 10SM CLR 03/M01 A3004 RMK AO2 SLP178 T00281006 10033 20006 53004   
KMSP 221053Z 23006KT 10SM CLR 03/01 A3003 RMK AO2 SLP174 T00280006  
KMSP 220953Z 21003KT 9SM CLR 02/01 A3003 RMK AO2 SLP173 T00220006